Terminal Aerodrome Forecast
Issued by NWS

Home | Current Version | Previous Version | Text Only | Print | Product List | Glossary On
Versions: 1 2 3 4 5 6 7 8 9 10 11 12 13 14 15 16
000
FTUS45 KRIW 250500
TAFBPI
TAF
KBPI 250534Z 2506/2606 VRB06KT P6SM VCSH BKN100
     FM251100 32005KT P6SM VCFG FEW015 SCT100
     FM251700 VRB05KT P6SM SCT060 BKN200
     FM252200 26010KT P6SM VCSH BKN060
     FM260400 12007KT 5SM RA BR OVC030=

USA.gov is the U.S. government's official web portal to all federal, state and local government web resources and services.